Huvudsida
METAR-TAF:

METAR-TAF

Flygplatser :

Alghero-Fertilia flygplats

Alghero, Italien

latitud: 40-38N, longitud: 008-17E, höjd: 23 m

Aktuellt väderrapport

Denna rapport gjordes för 32 minuter sedan, klockan 03:50 UTC
Vind 1 kt från ost/nordost
Temperatur 18°C
Fuktighet 94%
Tryck 1015 hPa
Sikt 10 km eller mer
Inga moln under 1 500 m eller inga cumulonimbus

METAR: LIEA 190350Z 07001KT CAVOK 18/17 Q1015

Tid: 06:22 (04:22 UTC)

Väderprognos

Denna rapport gjordes för 5 timmar och 22 minuter sedan, klockan 23:00 UTC
Prognos gäller från 19 kl. 00 UTC till 19 kl. 24 UTC
Vind 4 kt varierande vindriktning
Sikt 10 km eller mer
Inga moln under 1 500 m eller inga cumulonimbus
Blir
från 19 kl. 08 UTC till 19 kl. 10 UTC
Vind 10 kt från sydväst
Blir
från 19 kl. 16 UTC till 19 kl. 18 UTC
Vind 4 kt varierande vindriktning

TAF: LIEA 182300Z 1900/1924 VRB04KT CAVOK BECMG 1908/1910 23010KT BECMG 1916/1918 VRB04KT

Aktuella väderrapporter och prognoser från 4000 flygplatser (METAR- och TAF-rapporter).

De tillgängliga stationerna syns som gula och röda prickar på kartan.

För musen över prickarna för att se namnen på stationerna.

Klicka sedan för att få väderrapporter och prognoser.

För att ändra kartan: Klicka på de gröna knapparna med ett svart kors på för att zooma in; den gröna knappen med ett streck på för att zooma ut; eller på de gröna pilarna för angränsande kartor.


METAR-TAF: